Time;durP1;ratioP1;P1;durP2;ratioP2;P2;SDS_P1;SDS_P2;PMS_P1;PMS_P2;Temp;Humidity;BMP_temperature;BMP_pressure;BME280_temperature;BME280_humidity;BME280_pressure;Samples;Min_cycle;Max_cycle;Signal;HPM_P1;HPM_P2
2021/11/20 00:02:26;;;;;;;18.42;8.85;;;10.40;99.90;;;;;;5098970;28;20030;-72
2021/11/20 00:04:55;;;;;;;15.98;9.98;;;10.40;99.90;;;;;;5098453;28;20028;-73
2021/11/20 00:07:23;;;;;;;18.38;10.10;;;10.50;99.90;;;;;;5098634;28;20032;-73
2021/11/20 00:09:51;;;;;;;19.33;11.23;;;10.40;99.90;;;;;;5098533;28;20318;-73
2021/11/20 00:12:24;;;;;;;19.02;10.65;;;10.40;99.90;;;;;;5098351;28;20020;-73
2021/11/20 00:14:52;;;;;;;18.90;10.77;;;10.40;99.90;;;;;;5097979;28;20116;-73
2021/11/20 00:17:21;;;;;;;21.60;10.45;;;10.40;99.90;;;;;;5097602;28;20024;-73
2021/11/20 00:19:49;;;;;;;27.17;13.77;;;10.40;99.90;;;;;;5097997;28;20031;-72
2021/11/20 00:22:26;;;;;;;21.95;10.68;;;10.40;99.90;;;;;;5097523;28;20020;-73
2021/11/20 00:25:03;;;;;;;20.60;12.18;;;10.40;99.90;;;;;;5097205;28;20020;-73
2021/11/20 00:27:37;;;;;;;23.17;12.02;;;10.40;99.90;;;;;;5097203;28;20044;-72
2021/11/20 00:30:20;;;;;;;21.75;10.90;;;10.40;99.90;;;;;;5097415;28;20077;-72
2021/11/20 00:32:54;;;;;;;22.45;11.55;;;10.40;99.90;;;;;;5097035;28;20039;-73
2021/11/20 00:35:27;;;;;;;29.50;12.40;;;10.40;99.90;;;;;;5096156;28;20070;-73
2021/11/20 00:37:55;;;;;;;23.42;12.13;;;10.40;99.90;;;;;;5098243;28;20021;-72
2021/11/20 00:40:31;;;;;;;25.02;11.82;;;10.40;99.90;;;;;;5097399;28;20438;-73
2021/11/20 00:42:59;;;;;;;16.88;10.55;;;10.40;99.90;;;;;;5098062;28;20414;-73
2021/11/20 00:45:28;;;;;;;25.48;12.18;;;10.40;99.90;;;;;;5098101;28;20038;-73
2021/11/20 00:47:58;;;;;;;23.85;12.40;;;10.40;99.90;;;;;;5098321;28;20027;-73
2021/11/20 00:50:27;;;;;;;19.48;11.32;;;10.40;99.90;;;;;;5097690;28;20427;-72
2021/11/20 00:52:55;;;;;;;20.73;11.05;;;10.30;99.90;;;;;;5096864;28;20089;-73
2021/11/20 00:55:27;;;;;;;19.55;11.05;;;10.40;99.90;;;;;;5097207;28;20031;-72
2021/11/20 00:57:57;;;;;;;19.45;11.55;;;10.30;99.90;;;;;;5096728;28;20427;-73
2021/11/20 01:00:35;;;;;;;25.75;11.18;;;10.30;99.90;;;;;;5096958;28;20099;-73
2021/11/20 01:03:04;;;;;;;22.75;11.45;;;10.30;99.90;;;;;;5096809;28;20034;-73
2021/11/20 01:05:33;;;;;;;18.80;10.32;;;10.30;99.90;;;;;;5096985;28;20458;-72
2021/11/20 01:08:01;;;;;;;19.48;10.80;;;10.30;99.90;;;;;;5096937;28;20035;-73
2021/11/20 01:10:32;;;;;;;22.20;11.18;;;10.30;99.90;;;;;;5096894;28;20024;-73
2021/11/20 01:13:01;;;;;;;24.02;11.07;;;10.30;99.90;;;;;;5097659;28;20028;-73
2021/11/20 01:15:36;;;;;;;23.40;11.75;;;10.40;99.90;;;;;;5097427;28;20111;-72
2021/11/20 01:18:06;;;;;;;21.15;9.90;;;10.30;99.90;;;;;;5097500;28;20069;-73
2021/11/20 01:20:36;;;;;;;21.63;12.85;;;10.30;99.90;;;;;;5097391;28;20324;-73
2021/11/20 01:23:03;;;;;;;21.92;11.85;;;10.30;99.90;;;;;;5097568;28;20427;-72
2021/11/20 01:25:31;;;;;;;28.35;12.85;;;10.30;99.90;;;;;;5097356;28;20081;-73
2021/11/20 01:27:59;;;;;;;23.10;12.82;;;10.30;99.90;;;;;;5097459;28;20058;-72
2021/11/20 01:30:27;;;;;;;19.13;11.32;;;10.30;99.90;;;;;;5096028;28;20033;-73
2021/11/20 01:32:55;;;;;;;24.88;12.95;;;10.30;99.90;;;;;;5096926;28;20039;-73
2021/11/20 01:35:24;;;;;;;23.92;12.50;;;10.30;99.90;;;;;;5096256;28;20103;-73
2021/11/20 01:37:53;;;;;;;18.52;10.07;;;10.30;99.90;;;;;;5095476;28;20377;-73
2021/11/20 01:40:24;;;;;;;19.92;11.35;;;10.30;99.90;;;;;;5095254;28;20059;-73
2021/11/20 01:42:51;;;;;;;27.23;11.88;;;10.30;99.90;;;;;;5096901;28;20354;-73
2021/11/20 01:45:33;;;;;;;27.27;12.77;;;10.30;99.90;;;;;;5097004;28;20470;-73
2021/11/20 01:48:35;;;;;;;27.77;12.10;;;10.30;99.90;;;;;;5096329;28;20056;-72
2021/11/20 01:51:16;;;;;;;24.08;11.60;;;10.30;99.90;;;;;;5096643;28;20051;-73
2021/11/20 01:54:04;;;;;;;21.83;11.90;;;10.30;99.90;;;;;;5099169;28;20070;-73
2021/11/20 01:56:46;;;;;;;19.38;10.88;;;10.30;99.90;;;;;;5086419;28;20085;-73
2021/11/20 01:59:21;;;;;;;20.75;11.38;;;10.30;99.90;;;;;;5100914;28;20016;-72
2021/11/20 02:01:49;;;;;;;22.27;10.27;;;10.30;99.90;;;;;;5101453;28;20095;-72
2021/11/20 02:04:50;;;;;;;19.35;11.82;;;10.30;99.90;;;;;;5101363;28;20024;-73
2021/11/20 02:07:47;;;;;;;19.73;11.68;;;10.30;99.90;;;;;;5099028;28;20035;-73
2021/11/20 02:10:19;;;;;;;24.15;12.02;;;10.30;99.90;;;;;;5100244;28;20024;-73
2021/11/20 02:12:57;;;;;;;24.65;11.88;;;10.30;99.90;;;;;;5099751;28;20032;-73
2021/11/20 02:15:49;;;;;;;23.15;12.50;;;10.30;99.90;;;;;;5098496;28;20078;-73
2021/11/20 02:18:20;;;;;;;21.80;10.93;;;10.20;99.90;;;;;;5098697;28;20016;-73
2021/11/20 02:20:58;;;;;;;21.77;11.48;;;10.20;99.90;;;;;;5099695;28;20024;-73
2021/11/20 02:23:25;;;;;;;22.17;10.23;;;10.20;99.90;;;;;;5098436;28;20077;-73
2021/11/20 02:25:52;;;;;;;19.48;11.50;;;10.20;99.90;;;;;;5099763;28;20028;-73
2021/11/20 02:28:20;;;;;;;23.55;11.80;;;10.20;99.90;;;;;;5100432;28;20038;-72
2021/11/20 02:30:49;;;;;;;22.27;11.70;;;10.20;99.90;;;;;;5099205;28;20024;-73
2021/11/20 02:33:31;;;;;;;21.00;10.38;;;10.30;99.90;;;;;;5100263;28;20036;-73
2021/11/20 02:36:05;;;;;;;18.38;10.15;;;10.20;99.90;;;;;;5100108;28;20020;-72
2021/11/20 02:38:42;;;;;;;20.10;9.88;;;10.30;99.90;;;;;;5099252;28;20028;-73
2021/11/20 02:41:17;;;;;;;17.30;10.65;;;10.30;99.90;;;;;;5100650;28;20071;-73
2021/11/20 02:43:50;;;;;;;20.17;11.48;;;10.20;99.90;;;;;;5100297;28;20419;-73
2021/11/20 02:46:22;;;;;;;21.05;10.23;;;10.30;99.90;;;;;;5099376;28;20031;-73
2021/11/20 02:48:50;;;;;;;21.88;10.98;;;10.20;99.90;;;;;;5099203;28;20408;-72
2021/11/20 02:51:24;;;;;;;18.80;11.25;;;10.30;99.90;;;;;;5098946;28;20024;-73
2021/11/20 02:54:01;;;;;;;19.35;11.32;;;10.30;99.90;;;;;;5099006;28;20055;-73
2021/11/20 02:56:37;;;;;;;20.92;11.35;;;10.20;99.90;;;;;;5098889;28;20468;-73
2021/11/20 02:59:05;;;;;;;22.13;10.38;;;10.20;99.90;;;;;;5099029;28;20047;-72
2021/11/20 03:01:35;;;;;;;21.88;10.25;;;10.30;99.90;;;;;;5099307;28;20024;-72
2021/11/20 03:04:12;;;;;;;17.63;10.02;;;10.20;99.90;;;;;;5098618;28;20024;-73
2021/11/20 03:06:40;;;;;;;22.15;11.93;;;10.20;99.90;;;;;;5098195;28;20020;-72
2021/11/20 03:09:10;;;;;;;19.85;10.63;;;10.20;99.90;;;;;;5099753;28;20024;-72
2021/11/20 03:11:37;;;;;;;21.88;11.88;;;10.20;99.90;;;;;;5099501;28;20024;-72
2021/11/20 03:14:06;;;;;;;17.42;10.73;;;10.20;99.90;;;;;;5099690;28;20400;-73
2021/11/20 03:16:47;;;;;;;24.75;12.38;;;10.20;99.90;;;;;;5099421;28;20040;-72
2021/11/20 03:19:15;;;;;;;19.63;11.25;;;10.20;99.90;;;;;;5099365;28;20420;-72
2021/11/20 03:21:47;;;;;;;24.35;12.02;;;10.20;99.90;;;;;;5099450;28;20435;-73
2021/11/20 03:24:17;;;;;;;21.02;12.38;;;10.20;99.90;;;;;;5099104;28;20016;-73
2021/11/20 03:26:45;;;;;;;22.83;11.07;;;10.20;99.90;;;;;;5098294;28;20020;-73
2021/11/20 03:29:13;;;;;;;22.00;12.02;;;10.20;99.90;;;;;;5098538;28;20421;-73
2021/11/20 03:31:42;;;;;;;23.20;11.90;;;10.20;99.90;;;;;;5098451;28;20031;-72
2021/11/20 03:34:11;;;;;;;23.80;12.25;;;10.20;99.90;;;;;;5098227;28;20028;-72
2021/11/20 03:36:40;;;;;;;25.77;11.70;;;10.10;99.90;;;;;;5096963;28;20241;-73
2021/11/20 03:39:08;;;;;;;23.90;12.85;;;10.20;99.90;;;;;;5098056;28;20404;-73
2021/11/20 03:41:37;;;;;;;23.73;12.40;;;10.20;99.90;;;;;;5097981;28;20024;-73
2021/11/20 03:44:06;;;;;;;20.60;10.95;;;10.10;99.90;;;;;;5099619;28;20023;-72
2021/11/20 03:46:34;;;;;;;23.05;13.05;;;10.10;99.90;;;;;;5097791;28;20024;-73
2021/11/20 03:49:03;;;;;;;30.25;13.27;;;10.20;99.90;;;;;;5099371;28;20024;-72
2021/11/20 03:51:31;;;;;;;24.65;13.40;;;10.20;99.90;;;;;;5098674;28;20424;-73
2021/11/20 03:53:59;;;;;;;27.48;14.35;;;10.20;99.90;;;;;;5098887;28;20044;-73
2021/11/20 03:56:28;;;;;;;30.77;14.45;;;10.20;99.90;;;;;;5098677;28;20354;-72
2021/11/20 03:58:55;;;;;;;28.10;14.25;;;10.10;99.90;;;;;;5099422;28;20024;-72
2021/11/20 04:01:24;;;;;;;24.25;13.10;;;10.20;99.90;;;;;;5097835;28;20133;-72
2021/11/20 04:03:53;;;;;;;26.48;15.05;;;10.20;99.90;;;;;;5098323;28;20020;-73
2021/11/20 04:06:20;;;;;;;32.92;16.58;;;10.20;99.90;;;;;;5097506;28;20074;-73
2021/11/20 04:08:50;;;;;;;29.25;16.13;;;10.10;99.90;;;;;;5097576;28;20032;-72
2021/11/20 04:11:30;;;;;;;25.70;15.48;;;10.10;99.90;;;;;;5097511;28;20025;-73
2021/11/20 04:13:59;;;;;;;32.45;17.58;;;10.10;99.90;;;;;;5097516;28;20315;-73
2021/11/20 04:16:29;;;;;;;29.58;15.40;;;10.10;99.90;;;;;;5096896;28;20096;-73
2021/11/20 04:18:57;;;;;;;34.67;18.23;;;10.10;99.90;;;;;;5097929;28;20078;-73
2021/11/20 04:21:26;;;;;;;31.10;17.40;;;10.10;99.90;;;;;;5096627;28;20020;-73
2021/11/20 04:23:56;;;;;;;30.60;17.45;;;10.10;99.90;;;;;;5098379;28;20039;-72
2021/11/20 04:26:26;;;;;;;35.22;17.83;;;10.10;99.90;;;;;;5098116;28;20023;-72
2021/11/20 04:28:54;;;;;;;34.42;18.30;;;10.10;99.90;;;;;;5098096;28;20012;-72
2021/11/20 04:31:21;;;;;;;34.90;17.55;;;10.10;99.90;;;;;;5098046;28;20060;-72
2021/11/20 04:33:52;;;;;;;40.20;18.75;;;10.10;99.90;;;;;;5096930;28;20020;-72
2021/11/20 04:36:21;;;;;;;33.55;18.20;;;10.10;99.90;;;;;;5097834;28;20020;-73
2021/11/20 04:38:48;;;;;;;35.08;19.17;;;10.10;99.90;;;;;;5097163;28;20420;-72
2021/11/20 04:41:16;;;;;;;33.20;17.58;;;10.10;99.90;;;;;;5096952;28;20129;-72
2021/11/20 04:43:46;;;;;;;33.78;18.95;;;10.10;99.90;;;;;;5095826;28;20020;-73
2021/11/20 04:46:16;;;;;;;37.13;18.48;;;10.10;99.90;;;;;;5096879;28;20126;-73
2021/11/20 04:48:44;;;;;;;31.83;19.45;;;10.10;99.90;;;;;;5097275;28;20024;-73
2021/11/20 04:51:12;;;;;;;34.17;19.35;;;10.10;99.90;;;;;;5096759;28;20031;-72
2021/11/20 04:53:42;;;;;;;37.58;19.67;;;10.10;99.90;;;;;;5096594;28;20048;-73
2021/11/20 04:56:15;;;;;;;34.75;19.88;;;10.10;99.90;;;;;;5096670;28;20016;-73
2021/11/20 04:58:44;;;;;;;37.85;19.02;;;10.10;99.90;;;;;;5098181;28;20024;-72
2021/11/20 05:01:12;;;;;;;38.83;18.95;;;10.10;99.90;;;;;;5096551;28;20320;-73
2021/11/20 05:03:42;;;;;;;36.72;18.60;;;10.10;99.90;;;;;;5096547;28;20020;-72
2021/11/20 05:06:09;;;;;;;39.53;19.40;;;10.10;99.90;;;;;;5097498;28;20024;-73
2021/11/20 05:08:37;;;;;;;34.70;18.17;;;10.10;99.90;;;;;;5097754;28;20028;-73
2021/11/20 05:11:08;;;;;;;35.78;18.92;;;10.10;99.90;;;;;;5097520;28;20427;-73
2021/11/20 05:13:36;;;;;;;40.22;20.42;;;10.10;99.90;;;;;;5097772;28;20028;-73
2021/11/20 05:16:04;;;;;;;35.92;20.05;;;10.10;99.90;;;;;;5097169;28;20319;-73
2021/11/20 05:18:32;;;;;;;38.53;20.27;;;10.10;99.90;;;;;;5095518;28;20144;-73
2021/11/20 05:21:01;;;;;;;38.72;20.85;;;10.10;99.90;;;;;;5096589;28;20021;-73
2021/11/20 05:23:30;;;;;;;43.15;21.27;;;10.10;99.90;;;;;;5096526;28;20102;-73
2021/11/20 05:25:58;;;;;;;38.58;21.48;;;10.00;99.90;;;;;;5096151;28;20031;-73
2021/11/20 05:28:26;;;;;;;37.10;20.17;;;10.00;99.90;;;;;;5100233;28;20375;-73
2021/11/20 05:30:54;;;;;;;39.42;21.67;;;10.00;99.90;;;;;;5099416;28;20055;-72
2021/11/20 05:33:26;;;;;;;40.65;22.17;;;10.00;99.90;;;;;;5099738;28;20354;-73
2021/11/20 05:35:53;;;;;;;41.33;21.85;;;10.00;99.90;;;;;;5100673;28;20077;-73
2021/11/20 05:38:21;;;;;;;40.95;21.17;;;10.00;99.90;;;;;;5102017;28;20016;-73
2021/11/20 05:40:48;;;;;;;45.70;23.67;;;10.00;99.90;;;;;;5101326;28;20294;-73
2021/11/20 05:43:21;;;;;;;40.63;21.08;;;10.00;99.90;;;;;;5101256;28;20024;-73
2021/11/20 05:46:06;;;;;;;39.30;21.42;;;10.00;99.90;;;;;;5101241;28;20021;-72
2021/11/20 05:48:34;;;;;;;42.35;22.70;;;10.00;99.90;;;;;;5101399;28;20021;-73
2021/11/20 05:51:01;;;;;;;44.70;23.77;;;10.00;99.90;;;;;;5101286;28;20031;-73
2021/11/20 05:53:29;;;;;;;41.53;22.73;;;10.00;99.90;;;;;;5100928;28;20506;-73
2021/11/20 05:55:59;;;;;;;38.42;21.83;;;10.00;99.90;;;;;;5100037;28;20024;-73
2021/11/20 05:58:26;;;;;;;41.05;21.52;;;9.90;99.90;;;;;;5100625;28;20101;-73
2021/11/20 06:01:00;;;;;;;44.65;23.50;;;9.90;99.90;;;;;;5099928;28;20020;-73
2021/11/20 06:03:29;;;;;;;42.65;23.15;;;9.90;99.90;;;;;;5100418;28;20027;-72
2021/11/20 06:05:57;;;;;;;37.42;22.40;;;9.90;99.90;;;;;;5099840;28;20031;-72
2021/11/20 06:08:25;;;;;;;38.83;21.42;;;9.90;99.90;;;;;;5100128;28;20297;-73
2021/11/20 06:10:55;;;;;;;39.85;21.85;;;9.90;99.90;;;;;;5100362;28;20032;-73
2021/11/20 06:13:24;;;;;;;41.53;22.05;;;9.90;99.90;;;;;;5099919;28;20107;-73
2021/11/20 06:15:53;;;;;;;43.05;23.15;;;9.90;99.90;;;;;;5100510;28;20447;-73
2021/11/20 06:18:21;;;;;;;38.10;20.00;;;9.90;99.90;;;;;;5100627;28;20024;-73
2021/11/20 06:20:50;;;;;;;43.08;24.17;;;9.90;99.90;;;;;;5100666;28;20040;-73
2021/11/20 06:23:19;;;;;;;39.22;22.13;;;9.90;99.90;;;;;;5101032;28;20020;-73
2021/11/20 06:25:48;;;;;;;43.28;21.42;;;9.90;99.90;;;;;;5100453;28;20432;-73
2021/11/20 06:28:16;;;;;;;38.83;21.17;;;9.90;99.90;;;;;;5099455;28;20443;-73
2021/11/20 06:30:44;;;;;;;40.80;21.55;;;9.90;99.90;;;;;;5100373;28;20028;-73
2021/11/20 06:33:11;;;;;;;43.63;21.98;;;9.90;99.90;;;;;;5100491;28;20496;-72
2021/11/20 06:35:40;;;;;;;39.45;21.63;;;9.90;99.90;;;;;;5099189;28;20024;-73
2021/11/20 06:38:07;;;;;;;45.33;22.23;;;9.90;99.90;;;;;;5099119;28;20020;-73
2021/11/20 06:40:41;;;;;;;38.20;21.58;;;9.90;99.90;;;;;;5099111;28;20024;-73
2021/11/20 06:43:11;;;;;;;35.70;18.98;;;9.90;99.90;;;;;;5099782;28;20039;-72
2021/11/20 06:45:41;;;;;;;41.40;21.52;;;10.00;99.90;;;;;;5099187;28;20052;-71
2021/11/20 06:48:09;;;;;;;37.63;20.35;;;9.90;99.90;;;;;;5099666;28;20058;-72
2021/11/20 06:50:39;;;;;;;40.60;22.75;;;9.90;99.90;;;;;;5098977;28;20328;-72
2021/11/20 06:53:11;;;;;;;43.33;20.58;;;9.90;99.90;;;;;;5099680;28;20027;-72
2021/11/20 06:55:39;;;;;;;39.50;21.67;;;9.90;99.90;;;;;;5098739;28;20055;-72
2021/11/20 06:58:20;;;;;;;39.80;22.23;;;9.90;99.90;;;;;;5099842;28;20065;-71
2021/11/20 07:00:55;;;;;;;41.13;21.00;;;9.90;99.90;;;;;;5099745;28;20035;-72
2021/11/20 07:03:35;;;;;;;38.78;21.30;;;9.90;99.90;;;;;;5100508;28;20043;-72
2021/11/20 07:06:10;;;;;;;40.58;22.40;;;9.90;99.90;;;;;;5098421;28;20031;-73
2021/11/20 07:08:39;;;;;;;39.42;21.48;;;9.90;99.90;;;;;;5100105;28;20056;-71
2021/11/20 07:11:07;;;;;;;38.88;21.25;;;9.90;99.90;;;;;;5098626;28;20050;-72
2021/11/20 07:13:35;;;;;;;37.88;20.30;;;9.90;99.90;;;;;;5099392;28;20039;-74
2021/11/20 07:16:05;;;;;;;39.83;21.55;;;9.90;99.90;;;;;;5097332;28;20032;-74
2021/11/20 07:18:34;;;;;;;37.55;20.50;;;9.90;99.90;;;;;;5098879;28;20032;-74
2021/11/20 07:21:02;;;;;;;40.38;21.92;;;9.90;99.90;;;;;;5098428;28;20021;-74
2021/11/20 07:23:30;;;;;;;39.85;21.30;;;9.90;99.90;;;;;;5098932;28;20035;-74
2021/11/20 07:25:58;;;;;;;42.53;23.05;;;9.90;99.90;;;;;;5098381;28;20024;-74
2021/11/20 07:28:27;;;;;;;39.85;22.80;;;9.90;99.90;;;;;;5099024;28;20031;-73
2021/11/20 07:30:55;;;;;;;38.80;21.80;;;9.90;99.90;;;;;;5099242;28;20066;-73
2021/11/20 07:33:23;;;;;;;46.10;24.83;;;9.90;99.90;;;;;;5099342;28;20081;-72
2021/11/20 07:35:54;;;;;;;40.05;22.63;;;9.90;99.90;;;;;;5099079;28;20096;-72
2021/11/20 07:38:29;;;;;;;35.45;21.00;;;9.90;99.90;;;;;;5099408;28;20017;-73
2021/11/20 07:40:57;;;;;;;40.15;22.13;;;9.90;99.90;;;;;;5099132;28;20020;-73
2021/11/20 07:43:26;;;;;;;44.55;23.95;;;9.90;99.90;;;;;;5099471;28;20055;-73
2021/11/20 07:45:54;;;;;;;37.60;23.20;;;9.90;99.90;;;;;;5098951;28;20300;-73
2021/11/20 07:48:24;;;;;;;40.85;22.45;;;9.90;99.90;;;;;;5098527;28;20038;-71
2021/11/20 07:50:54;;;;;;;38.95;21.65;;;9.90;99.90;;;;;;5098052;28;20028;-70
2021/11/20 07:53:23;;;;;;;38.95;19.80;;;10.00;99.90;;;;;;5097769;28;20331;-69
2021/11/20 07:55:51;;;;;;;36.45;21.85;;;10.00;99.90;;;;;;5097612;28;20027;-69
2021/11/20 07:58:20;;;;;;;36.60;20.35;;;10.00;99.90;;;;;;5098312;28;20439;-70
2021/11/20 08:00:49;;;;;;;41.30;22.05;;;10.00;99.90;;;;;;5096583;28;20024;-68
2021/11/20 08:03:17;;;;;;;44.05;21.75;;;10.10;99.90;;;;;;5096698;28;20324;-69
2021/11/20 08:05:45;;;;;;;36.60;20.77;;;10.10;99.90;;;;;;5098078;28;20073;-70
2021/11/20 08:08:14;;;;;;;37.58;21.75;;;10.10;99.90;;;;;;5098389;28;20035;-68
2021/11/20 08:10:42;;;;;;;35.75;21.17;;;10.10;99.90;;;;;;5098468;28;20020;-70
2021/11/20 08:13:10;;;;;;;36.35;21.98;;;10.20;99.90;;;;;;5098841;28;20052;-69
2021/11/20 08:15:39;;;;;;;43.10;20.90;;;10.20;99.90;;;;;;5098710;28;20024;-71
2021/11/20 08:18:07;;;;;;;38.55;20.45;;;10.20;99.90;;;;;;5098821;28;20099;-70
2021/11/20 08:20:37;;;;;;;38.13;21.98;;;10.20;99.90;;;;;;5098596;28;20016;-70
2021/11/20 08:23:12;;;;;;;40.13;21.77;;;10.30;99.90;;;;;;5097781;28;20012;-68
2021/11/20 08:25:45;;;;;;;35.97;20.17;;;10.20;99.90;;;;;;5097129;28;20111;-68
2021/11/20 08:28:16;;;;;;;36.63;20.23;;;10.30;99.90;;;;;;5097944;28;20408;-68
2021/11/20 08:30:44;;;;;;;34.50;21.00;;;10.30;99.90;;;;;;5097150;28;20024;-68
2021/11/20 08:33:13;;;;;;;34.33;19.67;;;10.30;99.90;;;;;;5096073;28;20024;-70
2021/11/20 08:35:42;;;;;;;35.63;20.38;;;10.30;99.90;;;;;;5097261;28;20020;-70
2021/11/20 08:38:12;;;;;;;33.42;20.52;;;10.30;99.90;;;;;;5097176;28;20332;-70
2021/11/20 08:40:43;;;;;;;38.50;20.08;;;10.30;99.90;;;;;;5095903;28;20028;-71
2021/11/20 08:43:12;;;;;;;33.60;19.42;;;10.40;99.90;;;;;;5096349;28;20431;-71
2021/11/20 08:45:48;;;;;;;33.45;19.08;;;10.40;99.90;;;;;;5097876;28;20073;-71
2021/11/20 08:48:16;;;;;;;36.60;17.98;;;10.40;99.90;;;;;;5097833;28;20030;-70
2021/11/20 08:50:57;;;;;;;28.42;17.52;;;10.40;99.90;;;;;;5097712;28;20035;-70
2021/11/20 08:53:24;;;;;;;33.60;17.65;;;10.50;99.90;;;;;;5097439;28;20054;-71
2021/11/20 08:55:53;;;;;;;29.58;15.82;;;10.50;99.90;;;;;;5097676;28;20020;-70
2021/11/20 08:58:22;;;;;;;31.98;16.27;;;10.50;99.90;;;;;;5097847;28;20044;-70
2021/11/20 09:00:58;;;;;;;27.30;15.30;;;10.50;99.90;;;;;;5097700;28;20070;-71
2021/11/20 09:03:38;;;;;;;27.55;15.18;;;10.50;99.90;;;;;;5095361;28;20069;-70
2021/11/20 09:06:26;;;;;;;26.33;13.48;;;10.60;99.90;;;;;;5095449;28;20424;-71
2021/11/20 09:09:06;;;;;;;29.88;13.90;;;10.60;99.90;;;;;;5097335;28;20022;-71
2021/11/20 09:11:49;;;;;;;24.13;13.63;;;10.50;99.90;;;;;;5096565;28;20416;-70
2021/11/20 09:14:38;;;;;;;20.70;11.75;;;10.60;99.90;;;;;;5097068;28;20038;-71
2021/11/20 09:17:06;;;;;;;22.38;13.45;;;10.60;99.90;;;;;;5096532;28;20016;-72
2021/11/20 09:19:36;;;;;;;25.50;13.32;;;10.60;99.90;;;;;;5097003;28;20074;-69
2021/11/20 09:22:05;;;;;;;22.42;12.68;;;10.60;99.90;;;;;;5097346;28;20016;-70
2021/11/20 09:24:38;;;;;;;23.60;13.13;;;10.70;99.90;;;;;;5097389;28;20313;-70
2021/11/20 09:27:08;;;;;;;22.42;11.98;;;10.70;99.90;;;;;;5097357;28;20099;-70
2021/11/20 09:29:37;;;;;;;21.25;11.40;;;10.70;99.90;;;;;;5096304;28;20301;-70
2021/11/20 09:32:06;;;;;;;21.92;11.73;;;10.70;99.90;;;;;;5097446;28;20020;-70
2021/11/20 09:34:34;;;;;;;20.52;12.02;;;10.70;99.90;;;;;;5097314;28;20028;-70
2021/11/20 09:37:03;;;;;;;18.98;10.55;;;10.80;99.90;;;;;;5096907;28;20045;-70
2021/11/20 09:39:35;;;;;;;22.42;11.63;;;10.80;99.90;;;;;;5097098;28;20027;-70
2021/11/20 09:42:25;;;;;;;18.83;10.30;;;10.80;99.90;;;;;;5095252;28;20168;-70
2021/11/20 09:44:57;;;;;;;16.80;9.30;;;10.90;99.90;;;;;;5096933;28;20328;-68
2021/11/20 09:47:53;;;;;;;17.20;9.45;;;10.90;99.90;;;;;;5096258;28;20028;-70
2021/11/20 09:50:42;;;;;;;13.93;9.00;;;10.90;99.90;;;;;;5087682;28;20331;-70
2021/11/20 09:53:12;;;;;;;17.88;10.27;;;11.00;99.90;;;;;;5096001;28;20324;-69
2021/11/20 09:55:45;;;;;;;18.60;9.43;;;11.00;99.90;;;;;;5096699;28;20073;-70
2021/11/20 09:58:20;;;;;;;17.17;9.88;;;11.00;99.90;;;;;;5097336;28;20389;-69
2021/11/20 10:00:51;;;;;;;21.05;10.57;;;11.00;99.90;;;;;;5097688;28;20312;-69
2021/11/20 10:04:00;;;;;;;20.83;10.25;;;11.00;99.90;;;;;;5097651;28;20400;-69
2021/11/20 10:06:41;;;;;;;19.90;11.45;;;11.00;99.90;;;;;;5096829;28;20025;-69
2021/11/20 10:09:25;;;;;;;17.95;11.27;;;11.10;99.90;;;;;;5097117;28;20420;-69
2021/11/20 10:12:15;;;;;;;22.77;12.15;;;11.10;99.90;;;;;;5097492;28;20024;-69
2021/11/20 10:14:57;;;;;;;18.58;11.30;;;11.10;99.90;;;;;;5098469;28;20024;-70
2021/11/20 10:17:46;;;;;;;17.17;9.98;;;11.20;99.90;;;;;;5098591;28;20050;-71
2021/11/20 10:20:44;;;;;;;26.08;13.82;;;11.20;99.90;;;;;;5100313;28;20297;-71
2021/11/20 10:23:11;;;;;;;27.15;14.75;;;11.20;99.90;;;;;;5099895;28;20020;-71
2021/11/20 10:26:13;;;;;;;25.08;12.93;;;11.20;99.90;;;;;;5100163;28;20085;-70
2021/11/20 10:29:07;;;;;;;27.58;14.15;;;11.10;99.90;;;;;;5100550;28;20027;-70
2021/11/20 10:31:44;;;;;;;26.40;14.85;;;11.10;99.90;;;;;;5098351;28;20115;-71
2021/11/20 10:34:37;;;;;;;35.67;17.23;;;11.00;99.90;;;;;;5098492;28;20035;-71
2021/11/20 10:37:14;;;;;;;36.13;16.42;;;11.00;99.90;;;;;;5099037;28;20050;-71
2021/11/20 10:39:52;;;;;;;30.58;15.80;;;11.00;99.90;;;;;;5100522;28;20051;-70
2021/11/20 10:42:30;;;;;;;33.67;16.35;;;11.00;99.90;;;;;;5100430;28;20024;-71
2021/11/20 10:45:13;;;;;;;32.42;17.02;;;10.90;99.90;;;;;;5100621;28;20431;-70
2021/11/20 10:47:56;;;;;;;32.58;15.73;;;10.90;99.90;;;;;;5100661;28;20027;-70
2021/11/20 10:50:43;;;;;;;35.00;17.13;;;10.90;99.90;;;;;;5100173;28;20134;-70
2021/11/20 10:53:32;;;;;;;33.70;17.08;;;10.80;99.90;;;;;;5098951;28;20035;-70
2021/11/20 10:56:22;;;;;;;34.17;16.23;;;10.80;99.90;;;;;;5098906;28;20024;-70
2021/11/20 10:59:09;;;;;;;40.97;18.92;;;10.70;99.90;;;;;;5099497;28;20312;-70
2021/11/20 11:01:43;;;;;;;42.63;20.08;;;10.70;99.90;;;;;;5099397;28;20020;-70
2021/11/20 11:04:34;;;;;;;37.17;19.80;;;10.70;99.90;;;;;;5099537;28;20020;-70
2021/11/20 11:07:32;;;;;;;36.25;18.80;;;10.60;99.90;;;;;;5099018;28;20030;-70
2021/11/20 11:10:15;;;;;;;36.70;18.38;;;10.60;99.90;;;;;;5093843;28;20024;-71
2021/11/20 11:12:53;;;;;;;39.45;18.98;;;10.60;99.90;;;;;;5100128;28;20030;-70
2021/11/20 11:15:57;;;;;;;43.63;19.85;;;10.60;99.90;;;;;;5099964;28;20413;-70
2021/11/20 11:19:01;;;;;;;40.78;17.73;;;10.60;99.90;;;;;;5099747;28;20390;-70
2021/11/20 11:21:55;;;;;;;42.25;18.45;;;10.50;99.90;;;;;;5099866;28;20061;-70
2021/11/20 11:24:41;;;;;;;38.80;20.05;;;10.50;99.90;;;;;;5100166;28;20028;-71
2021/11/20 11:27:35;;;;;;;38.47;19.00;;;10.50;99.90;;;;;;5098245;28;20020;-71
2021/11/20 11:30:29;;;;;;;41.58;19.33;;;10.50;99.90;;;;;;5068153;28;20077;-71
2021/11/20 11:32:57;;;;;;;33.63;16.35;;;10.40;99.90;;;;;;5097162;28;20364;-71
2021/11/20 11:35:38;;;;;;;42.08;19.92;;;10.40;99.90;;;;;;5098613;28;20020;-71
2021/11/20 11:38:41;;;;;;;31.23;16.58;;;10.40;99.90;;;;;;5098191;28;20069;-71
2021/11/20 11:41:14;;;;;;;34.42;17.35;;;10.40;99.90;;;;;;5098648;28;20023;-71
2021/11/20 11:44:08;;;;;;;40.00;18.50;;;10.30;99.90;;;;;;5098234;28;20016;-71
2021/11/20 11:46:54;;;;;;;40.17;20.02;;;10.30;99.90;;;;;;5098550;28;20036;-71
2021/11/20 11:49:52;;;;;;;37.42;17.42;;;10.30;99.90;;;;;;5099092;28;20018;-71
2021/11/20 11:52:39;;;;;;;36.47;17.95;;;10.30;99.90;;;;;;5099334;28;20012;-71
2021/11/20 11:55:31;;;;;;;34.78;17.13;;;10.20;99.90;;;;;;5098667;28;20051;-71
2021/11/20 11:58:14;;;;;;;36.75;17.52;;;10.20;99.90;;;;;;5097722;28;20024;-71
2021/11/20 12:01:06;;;;;;;45.83;21.08;;;10.20;99.90;;;;;;5099166;28;20091;-71
2021/11/20 12:03:38;;;;;;;40.10;18.98;;;10.20;99.90;;;;;;5098852;28;20020;-71
2021/11/20 12:06:46;;;;;;;38.95;19.52;;;10.20;99.90;;;;;;5098171;28;20412;-71
2021/11/20 12:09:24;;;;;;;41.75;19.13;;;10.20;99.90;;;;;;5098155;28;20028;-71
2021/11/20 12:11:51;;;;;;;39.75;19.67;;;10.30;99.90;;;;;;5098102;28;20071;-71
2021/11/20 12:14:34;;;;;;;39.45;20.30;;;10.20;99.90;;;;;;5097585;28;20408;-71
2021/11/20 12:17:34;;;;;;;39.47;20.33;;;10.20;99.90;;;;;;5097722;28;20305;-71
2021/11/20 12:20:28;;;;;;;36.33;19.17;;;10.20;99.90;;;;;;5097884;28;20020;-71
2021/11/20 12:23:13;;;;;;;37.83;19.27;;;10.20;99.90;;;;;;5097583;28;20020;-71
2021/11/20 12:25:57;;;;;;;42.80;22.08;;;10.20;99.90;;;;;;5097203;28;20036;-71
2021/11/20 12:28:35;;;;;;;37.67;19.88;;;10.20;99.90;;;;;;5098823;28;20149;-71
2021/11/20 12:31:21;;;;;;;39.20;19.90;;;10.20;99.90;;;;;;5098151;28;20304;-71
2021/11/20 12:34:22;;;;;;;39.80;20.10;;;10.20;99.90;;;;;;5098638;28;20024;-71
2021/11/20 12:36:53;;;;;;;40.90;19.95;;;10.20;99.90;;;;;;5097822;28;20421;-71
2021/11/20 12:39:24;;;;;;;42.63;19.65;;;10.30;99.90;;;;;;5098672;28;20435;-71
2021/11/20 12:42:12;;;;;;;35.47;17.42;;;10.30;99.90;;;;;;5098490;28;20012;-71
2021/11/20 12:45:32;;;;;;;37.33;17.27;;;10.30;99.90;;;;;;5097549;28;20102;-71
2021/11/20 12:48:19;;;;;;;36.53;17.95;;;10.30;99.90;;;;;;5097417;28;20081;-71
2021/11/20 12:50:57;;;;;;;37.63;17.52;;;10.20;99.90;;;;;;5097169;28;20019;-71
2021/11/20 12:53:38;;;;;;;35.50;18.83;;;10.20;99.90;;;;;;5097113;28;20463;-71
2021/11/20 12:56:19;;;;;;;44.13;18.77;;;10.20;99.90;;;;;;5096861;28;20044;-71
2021/11/20 12:58:56;;;;;;;34.97;17.15;;;10.20;99.90;;;;;;5097528;28;20096;-71
2021/11/20 13:01:45;;;;;;;36.10;19.27;;;10.20;99.90;;;;;;5096749;28;20016;-71
2021/11/20 13:04:23;;;;;;;36.17;17.33;;;10.10;99.90;;;;;;5097352;28;20024;-71
2021/11/20 13:07:01;;;;;;;38.80;17.20;;;10.10;99.90;;;;;;5098074;28;20020;-71